createdAt,value
2019-03-20T00:00:41.576Z,23.30
2019-03-20T00:03:08.111Z,22.83
2019-03-20T00:05:34.258Z,20.37
2019-03-20T00:08:00.419Z,20.47
2019-03-20T00:10:27.158Z,21.50
2019-03-20T00:12:53.296Z,19.97
2019-03-20T00:15:19.548Z,26.30
2019-03-20T00:17:45.805Z,23.37
2019-03-20T00:20:12.977Z,20.13
2019-03-20T00:22:39.111Z,21.03
2019-03-20T00:25:07.476Z,21.77
2019-03-20T00:27:33.610Z,18.07
2019-03-20T00:29:59.763Z,22.67
2019-03-20T00:32:26.111Z,19.97
2019-03-20T00:35:00.726Z,18.37
2019-03-20T00:37:21.618Z,20.97
2019-03-20T00:39:47.763Z,25.13
2019-03-20T00:42:13.902Z,19.70
2019-03-20T00:44:40.076Z,20.10
2019-03-20T00:47:06.206Z,23.20
2019-03-20T00:49:32.353Z,23.13
2019-03-20T00:51:58.495Z,21.93
2019-03-20T00:54:24.659Z,25.13
2019-03-20T00:56:50.813Z,24.17
2019-03-20T00:59:18.232Z,27.37
2019-03-20T01:01:44.382Z,21.97
2019-03-20T01:04:10.519Z,23.20
2019-03-20T01:06:36.670Z,21.23
2019-03-20T01:09:05.006Z,29.47
2019-03-20T01:11:31.151Z,25.70
2019-03-20T01:13:57.386Z,22.00
2019-03-20T01:16:23.530Z,27.03
2019-03-20T01:18:49.699Z,25.87
2019-03-20T01:21:16.128Z,26.33
2019-03-20T01:23:42.282Z,24.87
2019-03-20T01:26:08.436Z,25.00
2019-03-20T01:28:34.919Z,22.10
2019-03-20T01:31:01.071Z,24.73
2019-03-20T01:33:27.208Z,29.20
2019-03-20T01:35:53.367Z,24.43
2019-03-20T01:38:19.503Z,24.83
2019-03-20T01:40:45.654Z,22.90
2019-03-20T01:43:11.792Z,24.00
2019-03-20T01:45:38.020Z,22.37
2019-03-20T01:48:04.706Z,20.03
2019-03-20T01:50:30.838Z,24.83
2019-03-20T01:52:57.009Z,27.70
2019-03-20T01:55:23.243Z,27.20
2019-03-20T01:57:49.401Z,18.13
2019-03-20T02:00:15.735Z,22.77
2019-03-20T02:02:42.095Z,22.33
2019-03-20T02:05:08.427Z,21.90
2019-03-20T02:07:34.574Z,25.80
2019-03-20T02:10:00.930Z,26.60
2019-03-20T02:12:27.073Z,21.33
2019-03-20T02:14:53.259Z,20.23
2019-03-20T02:17:19.419Z,20.00
2019-03-20T02:19:45.558Z,22.10
2019-03-20T02:22:11.813Z,17.77
2019-03-20T02:24:37.960Z,22.90
2019-03-20T02:27:04.402Z,20.97
2019-03-20T02:29:30.543Z,20.63
2019-03-20T02:31:56.691Z,20.23
2019-03-20T02:34:23.108Z,21.53
2019-03-20T02:36:49.251Z,20.70
2019-03-20T02:39:15.406Z,19.73
2019-03-20T02:41:41.556Z,26.03
2019-03-20T02:44:07.704Z,24.37
2019-03-20T02:46:33.840Z,18.10
2019-03-20T02:49:00.261Z,15.60
2019-03-20T02:51:26.876Z,21.40
2019-03-20T02:53:53.031Z,18.43
2019-03-20T02:56:19.187Z,17.27
2019-03-20T02:58:45.349Z,18.97
2019-03-20T03:01:11.496Z,17.70
2019-03-20T03:03:37.846Z,19.30
2019-03-20T03:06:07.323Z,21.30
2019-03-20T03:08:32.073Z,17.27
2019-03-20T03:10:58.243Z,16.47
2019-03-20T03:13:24.794Z,16.17
2019-03-20T03:15:50.951Z,18.93
2019-03-20T03:18:17.102Z,16.30
2019-03-20T03:20:43.252Z,19.37
2019-03-20T03:23:09.711Z,16.73
2019-03-20T03:25:35.861Z,17.23
2019-03-20T03:28:02.083Z,16.57
2019-03-20T03:30:28.284Z,17.50
2019-03-20T03:32:54.442Z,15.13
2019-03-20T03:35:20.608Z,17.10
2019-03-20T03:37:46.772Z,16.43
2019-03-20T03:40:15.570Z,13.83
2019-03-20T03:42:41.995Z,15.97
2019-03-20T03:45:10.544Z,13.27
2019-03-20T03:47:36.692Z,17.70
2019-03-20T03:50:04.250Z,19.57
2019-03-20T03:52:30.696Z,11.27
2019-03-20T03:54:56.888Z,17.53
2019-03-20T03:57:23.040Z,20.67
2019-03-20T03:59:49.196Z,19.83
2019-03-20T04:02:15.607Z,12.60
2019-03-20T04:04:41.765Z,14.10
2019-03-20T04:07:07.918Z,13.00
2019-03-20T04:09:34.069Z,15.80
2019-03-20T04:12:15.988Z,16.63
2019-03-20T04:14:42.132Z,17.50
2019-03-20T04:17:21.950Z,21.43
2019-03-20T04:19:48.392Z,17.20
2019-03-20T04:22:14.545Z,17.77
2019-03-20T04:24:40.711Z,19.13
2019-03-20T04:27:06.855Z,16.77
2019-03-20T04:29:33.006Z,14.23
2019-03-20T04:31:59.155Z,18.83
2019-03-20T04:34:25.317Z,18.67
2019-03-20T04:36:51.467Z,14.57
2019-03-20T04:39:17.624Z,15.80
2019-03-20T04:41:44.300Z,16.90
2019-03-20T04:44:10.782Z,18.90
2019-03-20T04:46:36.942Z,18.67
2019-03-20T04:49:03.098Z,16.63
2019-03-20T04:51:29.249Z,17.03
2019-03-20T04:53:55.396Z,14.43
2019-03-20T04:56:21.554Z,15.60
2019-03-20T04:58:48.698Z,22.53
2019-03-20T05:01:15.071Z,16.70
2019-03-20T05:03:41.210Z,18.17
2019-03-20T05:06:07.370Z,18.17
2019-03-20T05:08:33.524Z,15.30
2019-03-20T05:11:00.387Z,16.90
2019-03-20T05:13:26.611Z,17.57
2019-03-20T05:15:52.772Z,16.43
2019-03-20T05:18:18.923Z,16.60
2019-03-20T05:20:45.098Z,17.57
2019-03-20T05:23:11.260Z,17.43
2019-03-20T05:25:37.694Z,17.87
2019-03-20T05:28:03.850Z,15.37
2019-03-20T05:30:30.045Z,17.23
2019-03-20T05:32:56.179Z,18.53
2019-03-20T05:35:22.356Z,20.77
2019-03-20T05:37:48.499Z,19.07
2019-03-20T05:40:15.791Z,17.67
2019-03-20T05:42:42.035Z,16.17
2019-03-20T05:45:11.503Z,19.03
2019-03-20T05:47:37.967Z,20.13
2019-03-20T05:50:07.541Z,15.23
2019-03-20T05:52:34.808Z,17.97
2019-03-20T05:55:00.956Z,14.97
2019-03-20T05:57:27.124Z,17.30
2019-03-20T05:59:53.277Z,13.57
2019-03-20T06:02:19.426Z,15.70
2019-03-20T06:04:45.569Z,15.90
2019-03-20T06:07:21.078Z,15.70
2019-03-20T06:09:40.042Z,18.60
2019-03-20T06:12:06.210Z,18.10
2019-03-20T06:14:32.380Z,20.73
2019-03-20T06:16:58.589Z,17.77
2019-03-20T06:19:25.074Z,19.03
2019-03-20T06:21:51.501Z,18.17
2019-03-20T06:24:17.646Z,13.63
2019-03-20T06:26:44.159Z,15.87
2019-03-20T06:29:10.303Z,19.97
2019-03-20T06:31:36.623Z,17.60
2019-03-20T06:34:02.871Z,17.97
2019-03-20T06:36:29.047Z,15.67
2019-03-20T06:38:55.194Z,17.53
2019-03-20T06:41:21.358Z,17.60
2019-03-20T06:43:47.515Z,14.03
2019-03-20T06:46:13.655Z,17.47
2019-03-20T06:48:39.815Z,16.90
2019-03-20T06:51:05.967Z,18.17
2019-03-20T06:53:32.465Z,19.87
2019-03-20T06:55:58.612Z,15.33
2019-03-20T06:58:25.036Z,16.77
2019-03-20T07:00:55.000Z,21.47
2019-03-20T07:03:57.026Z,17.70
2019-03-20T07:06:26.983Z,20.20
2019-03-20T07:09:04.394Z,19.90
2019-03-20T07:11:34.439Z,17.53
2019-03-20T07:14:00.611Z,23.10
2019-03-20T07:16:26.746Z,17.67
2019-03-20T07:18:52.924Z,20.33
2019-03-20T07:21:19.060Z,16.97
2019-03-20T07:23:45.483Z,21.40
2019-03-20T07:26:11.634Z,20.70
2019-03-20T07:28:37.801Z,17.83
2019-03-20T07:31:14.323Z,21.27
2019-03-20T07:33:32.119Z,18.63
2019-03-20T07:35:58.262Z,21.27
2019-03-20T07:38:24.420Z,24.80
2019-03-20T07:40:50.571Z,19.90
2019-03-20T07:43:16.732Z,18.57
2019-03-20T07:45:43.177Z,20.23
2019-03-20T07:48:09.348Z,20.30
2019-03-20T07:50:35.490Z,19.87
2019-03-20T07:53:01.650Z,21.97
2019-03-20T07:55:27.800Z,27.13
2019-03-20T07:57:53.963Z,25.20
2019-03-20T08:00:20.128Z,25.60
2019-03-20T08:02:46.267Z,22.33
2019-03-20T08:05:12.419Z,19.53
2019-03-20T08:07:38.565Z,22.93
2019-03-20T08:10:08.715Z,18.37
2019-03-20T08:12:34.866Z,20.20
2019-03-20T08:15:01.015Z,17.00
2019-03-20T08:17:27.172Z,15.37
2019-03-20T08:19:53.327Z,18.97
2019-03-20T08:22:19.486Z,16.93
2019-03-20T08:24:45.646Z,18.23
2019-03-20T08:27:11.795Z,16.07
2019-03-20T08:29:37.955Z,15.10
2019-03-20T08:32:04.199Z,18.27
2019-03-20T08:34:30.369Z,14.37
2019-03-20T08:36:56.514Z,19.00
2019-03-20T08:39:22.777Z,21.80
2019-03-20T08:41:49.191Z,17.17
2019-03-20T08:44:15.351Z,17.97
2019-03-20T08:46:41.494Z,17.13
2019-03-20T08:49:07.654Z,20.07
2019-03-20T08:51:33.815Z,13.33
2019-03-20T08:53:59.966Z,14.03
2019-03-20T08:56:26.135Z,13.73
2019-03-20T08:58:52.692Z,16.97
2019-03-20T09:01:28.130Z,15.03
2019-03-20T09:03:47.024Z,13.33
2019-03-20T09:06:13.174Z,18.67
2019-03-20T09:08:39.338Z,13.97
2019-03-20T09:11:05.482Z,15.10
2019-03-20T09:13:31.631Z,14.67
2019-03-20T09:15:57.814Z,14.80
2019-03-20T09:18:23.981Z,15.47
2019-03-20T09:20:50.163Z,15.90
2019-03-20T09:23:16.304Z,14.07
2019-03-20T09:25:42.566Z,12.97
2019-03-20T09:28:08.734Z,11.63
2019-03-20T09:30:35.199Z,13.67
2019-03-20T09:33:01.343Z,14.17
2019-03-20T09:35:27.503Z,11.70
2019-03-20T09:37:53.670Z,12.60
2019-03-20T09:40:24.084Z,12.13
2019-03-20T09:42:50.278Z,13.50
2019-03-20T09:45:17.540Z,12.43
2019-03-20T09:47:44.124Z,13.43
2019-03-20T09:50:15.476Z,11.70
2019-03-20T09:52:41.798Z,13.00
2019-03-20T09:55:10.107Z,12.60
2019-03-20T09:57:36.371Z,12.57
2019-03-20T10:00:06.339Z,13.57
2019-03-20T10:02:32.494Z,13.67
2019-03-20T10:04:58.663Z,13.57
2019-03-20T10:07:26.338Z,15.40
2019-03-20T10:09:52.484Z,16.23
2019-03-20T10:12:18.636Z,15.90
2019-03-20T10:14:44.785Z,13.27
2019-03-20T10:17:10.954Z,16.77
2019-03-20T10:19:37.109Z,12.87
2019-03-20T10:22:03.273Z,12.50
2019-03-20T10:24:30.508Z,15.43
2019-03-20T10:26:56.666Z,11.17
2019-03-20T10:29:23.115Z,14.03
2019-03-20T10:31:49.266Z,11.23
2019-03-20T10:34:15.406Z,14.40
2019-03-20T10:36:41.567Z,13.83
2019-03-20T10:39:08.055Z,12.20
2019-03-20T10:41:34.286Z,15.40
2019-03-20T10:44:00.440Z,16.83
2019-03-20T10:46:26.601Z,12.50
2019-03-20T10:48:52.749Z,12.83
2019-03-20T10:51:19.175Z,13.40
2019-03-20T10:53:46.427Z,15.80
2019-03-20T10:56:13.056Z,14.60
2019-03-20T10:58:39.281Z,11.77
2019-03-20T11:01:05.533Z,16.20
2019-03-20T11:03:31.694Z,21.83
2019-03-20T11:05:57.848Z,19.67
2019-03-20T11:08:25.098Z,13.97
2019-03-20T11:10:51.558Z,19.80
2019-03-20T11:13:17.726Z,20.93
2019-03-20T11:15:43.867Z,21.80
2019-03-20T11:18:10.026Z,16.50
2019-03-20T11:20:36.186Z,13.93
2019-03-20T11:23:02.346Z,15.33
2019-03-20T11:25:28.705Z,14.83
2019-03-20T11:27:54.860Z,11.43
2019-03-20T11:30:26.280Z,11.70
2019-03-20T11:32:52.632Z,13.17
2019-03-20T11:35:18.987Z,12.50
2019-03-20T11:37:45.148Z,10.20
2019-03-20T11:40:14.507Z,8.97
2019-03-20T11:42:41.462Z,7.73
2019-03-20T11:45:09.022Z,6.93
2019-03-20T11:47:35.170Z,7.80
2019-03-20T11:50:02.847Z,8.30
2019-03-20T11:52:29.011Z,7.20
2019-03-20T11:54:55.466Z,8.20
2019-03-20T11:57:21.785Z,8.13
2019-03-20T11:59:48.085Z,7.97
2019-03-20T12:02:14.259Z,8.53
2019-03-20T12:04:40.412Z,8.77
2019-03-20T12:07:06.562Z,8.80
2019-03-20T12:09:40.785Z,10.57
2019-03-20T12:12:00.814Z,9.33
2019-03-20T12:14:26.962Z,8.57
2019-03-20T12:16:53.127Z,8.97
2019-03-20T12:19:19.290Z,8.90
2019-03-20T12:21:45.437Z,9.13
2019-03-20T12:24:11.591Z,7.77
2019-03-20T12:26:37.735Z,9.07
2019-03-20T12:29:03.919Z,10.03
2019-03-20T12:31:30.063Z,9.87
2019-03-20T12:33:56.263Z,8.30
2019-03-20T12:36:22.407Z,7.50
2019-03-20T12:38:48.684Z,8.23
2019-03-20T12:41:14.830Z,7.87
2019-03-20T12:43:41.255Z,9.03
2019-03-20T12:46:07.399Z,6.20
2019-03-20T12:48:33.563Z,7.33
2019-03-20T12:50:59.707Z,9.00
2019-03-20T12:53:33.748Z,9.70
2019-03-20T12:56:00.185Z,6.17
2019-03-20T12:58:26.355Z,6.83
2019-03-20T13:00:54.384Z,6.97
2019-03-20T13:03:20.563Z,9.77
2019-03-20T13:05:46.716Z,7.27
2019-03-20T13:08:12.894Z,6.93
2019-03-20T13:10:39.305Z,7.87
2019-03-20T13:13:05.581Z,7.70
2019-03-20T13:15:33.537Z,8.80
2019-03-20T13:17:59.875Z,7.70
2019-03-20T13:20:26.047Z,9.00
2019-03-20T13:22:56.014Z,9.23
2019-03-20T13:25:22.178Z,8.73
2019-03-20T13:27:48.347Z,8.10
2019-03-20T13:30:33.689Z,8.67
2019-03-20T13:32:59.915Z,10.77
2019-03-20T13:35:26.197Z,8.47
2019-03-20T13:37:52.347Z,8.77
2019-03-20T13:40:18.527Z,10.80
2019-03-20T13:42:44.735Z,12.90
2019-03-20T13:45:15.985Z,9.27
2019-03-20T13:47:42.146Z,8.67
2019-03-20T13:50:10.777Z,9.37
2019-03-20T13:52:37.354Z,9.80
2019-03-20T13:55:06.015Z,9.13
2019-03-20T13:57:32.170Z,11.57
2019-03-20T13:59:58.387Z,9.63
2019-03-20T14:02:24.535Z,9.80
2019-03-20T14:04:50.725Z,10.23
2019-03-20T14:07:16.887Z,8.23
2019-03-20T14:09:43.033Z,9.63
2019-03-20T14:12:09.288Z,7.60
2019-03-20T14:14:35.452Z,9.43
2019-03-20T14:17:01.605Z,9.17
2019-03-20T14:19:27.771Z,9.20
2019-03-20T14:21:53.934Z,9.73
2019-03-20T14:24:20.085Z,8.63
2019-03-20T14:26:46.290Z,9.67
2019-03-20T14:29:12.449Z,8.43
2019-03-20T14:31:38.934Z,10.47
2019-03-20T14:34:05.083Z,9.97
2019-03-20T14:36:31.266Z,11.23
2019-03-20T14:38:58.512Z,12.10
2019-03-20T14:41:24.670Z,8.67
2019-03-20T14:43:50.820Z,9.50
2019-03-20T14:46:17.332Z,11.13
2019-03-20T14:48:43.767Z,8.27
2019-03-20T14:51:09.939Z,9.23
2019-03-20T14:53:36.099Z,11.43
2019-03-20T14:56:02.370Z,13.67
2019-03-20T14:58:28.519Z,14.77
2019-03-20T15:00:55.033Z,10.20
2019-03-20T15:03:21.197Z,8.50
2019-03-20T15:05:47.368Z,10.37
2019-03-20T15:08:13.535Z,11.83
2019-03-20T15:10:45.917Z,9.57
2019-03-20T15:13:07.793Z,11.57
2019-03-20T15:15:49.488Z,10.33
2019-03-20T15:18:15.910Z,9.53
2019-03-20T15:20:42.075Z,10.03
2019-03-20T15:23:08.261Z,11.10
2019-03-20T15:25:34.611Z,11.43
2019-03-20T15:28:00.803Z,11.10
2019-03-20T15:30:29.585Z,10.27
2019-03-20T15:32:55.744Z,9.40
2019-03-20T15:35:21.900Z,12.73
2019-03-20T15:37:49.327Z,10.50
2019-03-20T15:40:17.186Z,8.83
2019-03-20T15:42:44.776Z,11.97
2019-03-20T15:45:16.229Z,10.20
2019-03-20T15:47:43.005Z,11.33
2019-03-20T15:50:13.007Z,12.43
2019-03-20T15:52:39.163Z,11.37
2019-03-20T15:55:23.195Z,9.87
2019-03-20T15:57:49.569Z,12.23
2019-03-20T16:00:17.835Z,9.73
2019-03-20T16:02:44.611Z,10.13
2019-03-20T16:05:11.078Z,10.90
2019-03-20T16:07:37.234Z,9.57
2019-03-20T16:10:07.207Z,10.47
2019-03-20T16:12:33.676Z,10.17
2019-03-20T16:14:59.935Z,9.17
2019-03-20T16:17:26.099Z,10.77
2019-03-20T16:19:52.246Z,8.80
2019-03-20T16:22:18.471Z,9.57
2019-03-20T16:24:44.636Z,11.10
2019-03-20T16:27:10.782Z,12.17
2019-03-20T16:29:36.954Z,11.67
2019-03-20T16:32:03.136Z,9.50
2019-03-20T16:34:29.293Z,8.97
2019-03-20T16:36:55.433Z,9.73
2019-03-20T16:39:21.614Z,9.83
2019-03-20T16:41:48.065Z,11.23
2019-03-20T16:44:14.232Z,10.30
2019-03-20T16:46:40.404Z,11.07
2019-03-20T16:49:06.693Z,10.20
2019-03-20T16:51:33.018Z,9.30
2019-03-20T16:53:59.279Z,10.37
2019-03-20T16:56:25.460Z,10.27
2019-03-20T16:58:51.714Z,8.20
2019-03-20T17:01:17.899Z,11.20
2019-03-20T17:03:44.059Z,11.67
2019-03-20T17:06:10.223Z,12.37
2019-03-20T17:08:36.398Z,10.57
2019-03-20T17:11:02.962Z,10.03
2019-03-20T17:13:29.119Z,11.00
2019-03-20T17:15:55.302Z,9.30
2019-03-20T17:18:21.483Z,8.40
2019-03-20T17:20:47.642Z,10.63
2019-03-20T17:23:14.122Z,10.23
2019-03-20T17:25:40.287Z,9.03
2019-03-20T17:28:06.649Z,10.27
2019-03-20T17:30:43.851Z,11.87
2019-03-20T17:33:10.022Z,9.13
2019-03-20T17:35:36.321Z,12.50
2019-03-20T17:38:03.390Z,11.77
2019-03-20T17:40:29.554Z,9.80
2019-03-20T17:42:56.351Z,11.67
2019-03-20T17:45:24.851Z,9.87
2019-03-20T17:47:51.007Z,12.17
2019-03-20T17:50:24.011Z,10.53
2019-03-20T17:52:50.479Z,12.33
2019-03-20T17:55:16.654Z,11.87
2019-03-20T17:57:42.811Z,11.40
2019-03-20T18:00:12.817Z,12.37
2019-03-20T18:02:39.074Z,9.77
2019-03-20T18:05:07.563Z,11.27
2019-03-20T18:07:33.711Z,9.70
2019-03-20T18:09:59.971Z,9.47
2019-03-20T18:12:27.131Z,11.33
2019-03-20T18:14:53.620Z,10.67
2019-03-20T18:17:19.825Z,13.93
2019-03-20T18:19:46.321Z,14.33
2019-03-20T18:22:12.812Z,14.90
2019-03-20T18:24:39.331Z,24.33
2019-03-20T18:27:05.497Z,30.13
2019-03-20T18:29:31.666Z,32.13
2019-03-20T18:31:57.859Z,43.57
2019-03-20T18:34:24.093Z,42.10
2019-03-20T18:36:51.147Z,43.73
2019-03-20T18:39:17.519Z,39.27
2019-03-20T18:41:43.825Z,25.57
2019-03-20T18:44:10.069Z,22.60
2019-03-20T18:46:36.237Z,25.43
2019-03-20T18:49:02.492Z,22.43
2019-03-20T18:51:28.990Z,20.87
2019-03-20T18:53:55.129Z,28.90
2019-03-20T18:56:22.504Z,20.63
2019-03-20T18:58:48.655Z,21.33
2019-03-20T19:01:14.824Z,18.80
2019-03-20T19:03:43.607Z,20.20
2019-03-20T19:06:16.366Z,21.17
2019-03-20T19:08:42.633Z,20.80
2019-03-20T19:11:08.904Z,19.73
2019-03-20T19:13:35.185Z,22.33
2019-03-20T19:16:01.362Z,18.83
2019-03-20T19:18:27.647Z,19.47
2019-03-20T19:20:53.784Z,20.70
2019-03-20T19:23:19.940Z,20.73
2019-03-20T19:25:46.403Z,15.70
2019-03-20T19:28:12.571Z,16.37
2019-03-20T19:30:38.718Z,17.17
2019-03-20T19:33:05.112Z,20.60
2019-03-20T19:35:31.552Z,15.37
2019-03-20T19:37:57.786Z,14.87
2019-03-20T19:40:24.587Z,19.90
2019-03-20T19:42:50.760Z,50.23
2019-03-20T19:45:17.661Z,77.30
2019-03-20T19:47:45.037Z,98.30
2019-03-20T19:50:15.452Z,107.03
2019-03-20T19:52:41.820Z,83.70
2019-03-20T19:55:10.182Z,83.23
2019-03-20T19:57:36.703Z,88.87
2019-03-20T20:00:14.843Z,102.07
2019-03-20T20:02:41.027Z,136.70
2019-03-20T20:05:15.795Z,163.40
2019-03-20T20:07:37.293Z,136.23
2019-03-20T20:10:06.512Z,192.87
2019-03-20T20:12:32.713Z,152.87
2019-03-20T20:14:59.863Z,173.53
2019-03-20T20:17:26.027Z,151.43
2019-03-20T20:19:52.242Z,116.40
2019-03-20T20:22:18.402Z,89.47
2019-03-20T20:24:44.820Z,142.60
2019-03-20T20:27:11.295Z,132.93
2019-03-20T20:29:37.457Z,110.23
2019-03-20T20:32:03.603Z,71.20
2019-03-20T20:34:29.787Z,50.23
2019-03-20T20:36:55.928Z,61.20
2019-03-20T20:39:22.103Z,37.63
2019-03-20T20:41:48.569Z,31.20
2019-03-20T20:44:14.726Z,28.10
2019-03-20T20:46:40.875Z,26.53
2019-03-20T20:49:07.030Z,22.00
2019-03-20T20:51:33.174Z,22.00
2019-03-20T20:53:59.330Z,22.37
2019-03-20T20:56:26.027Z,26.80
2019-03-20T20:58:52.190Z,24.13
2019-03-20T21:01:18.338Z,20.07
2019-03-20T21:03:44.502Z,21.17
2019-03-20T21:06:10.649Z,23.07
2019-03-20T21:08:37.818Z,26.03
2019-03-20T21:11:04.062Z,22.33
2019-03-20T21:13:30.235Z,23.77
2019-03-20T21:15:56.378Z,19.80
2019-03-20T21:18:41.405Z,23.47
2019-03-20T21:21:07.550Z,28.27
2019-03-20T21:23:57.237Z,21.80
2019-03-20T21:26:30.022Z,25.10
2019-03-20T21:29:23.404Z,20.23
2019-03-20T21:31:53.361Z,25.27
2019-03-20T21:34:52.634Z,20.77
2019-03-20T21:37:54.417Z,18.63
2019-03-20T21:40:20.570Z,21.63
2019-03-20T21:43:13.294Z,18.47
2019-03-20T21:46:10.554Z,19.50
2019-03-20T21:48:36.707Z,19.13
2019-03-20T21:51:13.425Z,19.80
2019-03-20T21:54:07.175Z,23.00
2019-03-20T21:56:37.250Z,22.17
2019-03-20T21:59:40.270Z,22.53
2019-03-20T22:02:21.914Z,21.30
2019-03-20T22:04:48.327Z,23.33
2019-03-20T22:07:14.490Z,19.17
2019-03-20T22:09:53.514Z,21.53
2019-03-20T22:12:32.759Z,21.33
2019-03-20T22:15:02.771Z,17.70
2019-03-20T22:17:35.615Z,19.77
2019-03-20T22:20:05.571Z,20.03
2019-03-20T22:22:54.085Z,17.13
2019-03-20T22:25:36.631Z,18.30
2019-03-20T22:28:23.402Z,19.40
2019-03-20T22:30:49.610Z,20.97
2019-03-20T22:33:53.419Z,21.00
2019-03-20T22:36:19.670Z,18.87
2019-03-20T22:39:09.434Z,18.80
2019-03-20T22:41:54.785Z,21.33
2019-03-20T22:44:22.078Z,23.57
2019-03-20T22:47:15.357Z,18.97
2019-03-20T22:50:03.108Z,20.57
2019-03-20T22:52:48.762Z,18.90
2019-03-20T22:55:48.783Z,20.37
2019-03-20T22:58:24.818Z,18.43
2019-03-20T23:00:57.071Z,19.63
2019-03-20T23:03:34.818Z,17.67
2019-03-20T23:06:01.487Z,19.97
2019-03-20T23:08:27.646Z,18.07
2019-03-20T23:10:53.791Z,19.70
2019-03-20T23:13:20.438Z,18.47
2019-03-20T23:15:47.482Z,20.27
2019-03-20T23:18:13.650Z,17.70
2019-03-20T23:20:39.795Z,17.73
2019-03-20T23:23:05.965Z,17.80
2019-03-20T23:25:32.508Z,21.80
2019-03-20T23:27:59.769Z,17.60
2019-03-20T23:30:28.138Z,19.73
2019-03-20T23:32:54.683Z,17.27
2019-03-20T23:35:20.834Z,16.50
2019-03-20T23:37:46.982Z,17.00
2019-03-20T23:40:15.251Z,20.13
2019-03-20T23:42:44.010Z,20.57
2019-03-20T23:45:12.774Z,20.20
2019-03-20T23:47:42.819Z,18.37
2019-03-20T23:50:10.387Z,23.67
2019-03-20T23:52:36.540Z,20.77
2019-03-20T23:55:06.921Z,21.73
2019-03-20T23:57:33.061Z,20.43
2019-03-20T23:59:59.214Z,22.90
